Nearby METAR Reports

 

KDPA - Chicago/Dupage, Illinois, USA
Distance from station: NW 11mi, 18km
Updated: Sun, 26-May-2024 12:52am CDT
Clear
Clear
 Wind from ESE
Wind: ESE 7 mph, 11 km/h
Temperature: 63°F, 17°C
Dew Point: 34°F, 1°C
Humidity: 34%
Barometer: 29.83 inHg, 1010.2 hPa
Clouds: Clear
Visibility: 10 miles, 16 km
2024/05/26 05:52 KDPA 260552Z AUTO 11006KT 10SM CLR 17/01 A2983 RMK AO2 SLP100 T01670011 10222 20156 402500122 58020
KLOT - Romeoville/Chi, Illinois, USA
Distance from station: S 13mi, 21km
Updated: Sun, 26-May-2024 1:17am CDT
Clear
Clear
 Wind from E
Wind: E 7 mph, 11 km/h
Temperature: 61°F, 16°C
Dew Point: 37°F, 3°C
Humidity: 42%
Barometer: 29.85 inHg, 1010.8 hPa
Clouds: Clear
Visibility: 10 miles, 16 km
2024/05/26 06:17 KLOT 260617Z AUTO 08006KT 10SM CLR 16/03 A2985 RMK AO2 LTG DSNT SW
 
KORD - Chicago O'Hare, Illinois, USA
Distance from station: NE 17mi, 27km
Updated: Sun, 26-May-2024 12:51am CDT
Overcast
Overcast
 Wind from E
Wind: E 5 mph, 7 km/h
Temperature: 63°F, 17°C
Dew Point: 43°F, 6°C
Humidity: 49%
Barometer: 29.85 inHg, 1010.8 hPa
Clouds: Overcast
Visibility: 10 miles, 16 km
Cloud details: Mostly cloudy 19000 ft
Overcast 30000 ft
2024/05/26 05:51 KORD 260551Z 09004KT 10SM BKN190 OVC300 17/06 A2985 RMK AO2 SLP104 T01670056 10217 20156 402440133 58015
KARR - Chicago/Aurora, Illinois, USA
Distance from station: W 19mi, 30km
Updated: Sun, 26-May-2024 12:52am CDT
Clear
Clear
 Wind from E
Wind: E 9 mph, 15 km/h
Temperature: 61°F, 16°C
Dew Point: 39°F, 4°C
Humidity: 45%
Barometer: 29.84 inHg, 1010.5 hPa
Clouds: Clear
Visibility: 10 miles, 16 km
2024/05/26 05:52 KARR 260552Z AUTO 09008KT 10SM CLR 16/04 A2984 RMK AO2 SLP103 T01610039 10239 20156 402610117 58016
 
KJOT - Joliet, Illinois, USA
Distance from station: S 19mi, 31km
Updated: Sun, 26-May-2024 1:15am CDT
Clear
Clear
 Wind from ESE
Wind: ESE 6 mph, 9 km/h
Temperature: 63°F, 17°C
Dew Point: 36°F, 2°C
Humidity: 37%
Barometer: 29.85 inHg, 1010.8 hPa
Clouds: Clear
Visibility: 10 miles, 16 km
2024/05/26 06:15 KJOT 260615Z AUTO 11005KT 10SM CLR 17/02 A2985 RMK AO2 T01650020
KMDW - Chicago, Illinois, USA
Distance from station: E 19mi, 31km
Updated: Sun, 26-May-2024 12:53am CDT
Overcast
Overcast
 Wind from E
Wind: E 3 mph, 6 km/h
Temperature: 63°F, 17°C
Dew Point: 43°F, 6°C
Humidity: 49%
Barometer: 29.86 inHg, 1011.2 hPa
Clouds: Overcast
Visibility: 10 miles, 16 km
Cloud details: Overcast 20000 ft
2024/05/26 05:53 KMDW 260553Z 10003KT 10SM OVC200 17/06 A2986 RMK AO2 SLP105 T01720056 10206 20167 402330150 58013 $
 
KPWK - Palwaukee, Illinois, USA
Distance from station: NNE 25mi, 41km
Updated: Sun, 26-May-2024 12:52am CDT
Clear
Clear
 Wind from calm
Wind: Calm
Temperature: 61°F, 16°C
Dew Point: 43°F, 6°C
Humidity: 52%
Barometer: 29.87 inHg, 1011.5 hPa
Clouds: Clear
Visibility: 10 miles, 16 km
2024/05/26 05:52 KPWK 260552Z AUTO 00000KT 10SM CLR 16/06 A2987 RMK AO2 SLP114 T01610061 10206 20144 402390133 58013 $
KC09 - Morris-Washburn, Illinois, USA
Distance from station: SSW 29mi, 47km
Updated: Sun, 26-May-2024 1:15am CDT
Clear
Clear
 Wind from SE
Wind: SE 7 mph, 11 km/h
Temperature: 63°F, 17°C
Dew Point: 37°F, 3°C
Humidity: 39%
Barometer: 29.83 inHg, 1010.2 hPa
Clouds: Clear
Visibility: 10 miles, 16 km
2024/05/26 06:15 KC09 260615Z AUTO 13006KT 10SM CLR 17/03 A2983 RMK AO2 T01670034
 
KDKB - De Kalb, Illinois, USA
Distance from station: WNW 31mi, 50km
Updated: Sun, 26-May-2024 1:15am CDT
Clear
Clear
 Wind from ESE
Wind: ESE 9 mph, 15 km/h
Temperature: 61°F, 16°C
Dew Point: 34°F, 1°C
Humidity: 36%
Barometer: 29.84 inHg, 1010.5 hPa
Clouds: Clear
Visibility: 10 miles, 16 km
2024/05/26 06:15 KDKB 260615Z AUTO 12008KT 10SM CLR 16/01 A2984 RMK AO2 T01620006
KIGQ - Chicago/Lansing, Illinois, USA
Distance from station: ESE 35mi, 57km
Updated: Sun, 26-May-2024 1:15am CDT
Clear
Clear
 Wind from SE
Wind: SE 3 mph, 6 km/h
Temperature: 55°F, 13°C
Dew Point: 46°F, 8°C
Humidity: 72%
Barometer: 29.87 inHg, 1011.5 hPa
Clouds: Clear
Visibility: 10 miles, 16 km
2024/05/26 06:15 KIGQ 260615Z AUTO 14003KT 10SM CLR 13/08 A2987 RMK AO2 T01290083
 
KGYY - Gary Regional, Indiana, USA
Distance from station: ESE 38mi, 62km
Updated: Sun, 26-May-2024 1:15am CDT
Mostly cloudy
Mostly cloudy
 Wind from SSE
Wind: SSE 3 mph, 6 km/h
Temperature: 55°F, 13°C
Dew Point: 55°F, 13°C
Humidity: 100%
Barometer: 29.86 inHg, 1011.2 hPa
Clouds: Mostly cloudy
Visibility: 10 miles, 16 km
Cloud details: Mostly cloudy 200 ft
2024/05/26 06:15 KGYY 260615Z AUTO 16003KT 10SM BKN002 13/13 A2986 RMK AO2
KUGN - Waukegan, Illinois, USA
Distance from station: NNE 45mi, 73km
Updated: Sun, 26-May-2024 12:51am CDT
Clear
Clear
 Wind from SE
Wind: SE 5 mph, 7 km/h
Temperature: 57°F, 14°C
Dew Point: 46°F, 8°C
Humidity: 67%
Barometer: 29.86 inHg, 1011.2 hPa
Clouds: Clear
Visibility: 10 miles, 16 km
2024/05/26 05:51 KUGN 260551Z AUTO 13004KT 10SM CLR 14/08 A2986 RMK AO2 SLP106 T01390083 10178 20117 402220117 58011
 
KRPJ - Rochelle/Koritz, Illinois, USA
Distance from station: W 50mi, 80km
Updated: Sun, 26-May-2024 1:15am CDT
Clear
Clear
 Wind from SE
Wind: SE 8 mph, 13 km/h
Temperature: 63°F, 17°C
Dew Point: 37°F, 3°C
Humidity: 39%
Barometer: 29.83 inHg, 1010.2 hPa
Clouds: Clear
Visibility: 10 miles, 16 km
2024/05/26 06:15 KRPJ 260615Z AUTO 13007KT 10SM CLR 17/03 A2983 RMK AO2 T01650032